Flight Track Log - Related Links

Times and Time Zones

All times are in EDT time to prevent confusion due to time zone crossing. See the GJS3707 flight status page for this flight to view local times or setup timezone preferences in your user account.

Time Position Orientation Groundspeed Altitude Reporting Facility
EDT Latitude Longitude Course Direction KTS MPH feet Rate Location/Type
Wed 11:10:15 AM 42.0167 -87.9667 261° West 164 189 2,700  Level Chicago TRACON
Wed 11:11:15 AM 42.0333 -88.0500 285° West 224 258 4,600 2,284 Climbing Chicago TRACON
Wed 11:12:00 AM 41.9271 -88.3643 255° West  Level FlightAware Approximate
Wed 11:13:00 AM 41.9104 -88.5200 261° West  Level FlightAware Approximate
Wed 11:13:11 AM 42.0711 -88.1919 290° West 254 292 9,400  Level Chicago Center
Wed 11:14:00 AM 41.8921 -88.6762 261° West  Level FlightAware Approximate
Wed 11:14:13 AM 42.0581 -88.2869 260° West 256 295 10,800  Level Chicago Center
Wed 11:15:00 AM 41.8740 -88.8324 261° West  Level FlightAware Approximate
Wed 11:15:15 AM 42.0417 -88.4014 259° West 304 350 12,200  Level Chicago Center
Wed 11:16:17 AM 42.0225 -88.5517 260° West 338 389 14,100 1,805 Climbing Chicago Center
Wed 11:17:18 AM 42.0078 -88.6814 261° West 352 405 15,900 1,854 Climbing Chicago Center
Wed 11:18:20 AM 41.9825 -88.8114 255° West 362 417 17,900 1,984 Climbing Chicago Center
Wed 11:19:22 AM 41.9569 -88.9403 255° West 360 414 20,000 1,790 Climbing Chicago Center
Wed 11:20:24 AM 41.9306 -89.0697 255° West 363 418 21,600 1,694 Climbing Chicago Center
Wed 11:21:26 AM 41.9006 -89.2275 256° West 368 423 23,500 1,645 Climbing Chicago Center
Wed 11:22:28 AM 41.8939 -89.3625 266° West 364 419 25,000 1,258 Climbing Chicago Center
Wed 11:23:30 AM 41.8894 -89.5003 268° West 370 426 26,100 1,016 Climbing Chicago Center
Wed 11:24:32 AM 41.8856 -89.6428 268° West 382 440 27,100 919 Climbing Chicago Center
Wed 11:25:34 AM 41.8825 -89.7892 268° West 393 452 28,000 919 Climbing Chicago Center
Wed 11:26:36 AM 41.8794 -89.9444 269° West 405 466 29,000 976 Climbing Chicago Center
Wed 11:27:37 AM 41.8742 -90.0953 267° West 408 470 30,000 1,122 Climbing Chicago Center
Wed 11:28:39 AM 41.8692 -90.2764 268° West 409 471 31,300 1,210 Climbing Chicago Center
Wed 11:29:41 AM 41.8647 -90.4256 268° West 405 466 32,500 1,065 Climbing Chicago Center
Wed 11:30:43 AM 41.8597 -90.5739 267° West 402 463 33,500 726 Climbing Chicago Center
Wed 11:31:45 AM 41.8517 -90.7269 266° West 410 472 34,000 242 Climbing Chicago Center
Wed 11:32:47 AM 41.8469 -90.8800 268° West 414 476 34,000  Level Chicago Center
Wed 11:33:49 AM 41.8397 -91.0725 267° West 431 496 34,000  Level Chicago Center
Wed 11:34:51 AM 41.8339 -91.2322 267° West 432 497 34,000  Level Chicago Center
Wed 11:35:53 AM 41.8267 -91.3903 267° West 429 494 34,000  Level Chicago Center
Wed 11:36:55 AM 41.8203 -91.5478 267° West 427 491 34,000  Level Chicago Center
Wed 11:37:57 AM 41.8133 -91.7022 267° West 420 483 34,000  Level Chicago Center
Wed 11:38:59 AM 41.8061 -91.8592 267° West 422 486 34,000  Level Chicago Center
Wed 11:40:01 AM 41.7969 -92.0456 266° West 422 486 34,000  Level Chicago Center
Wed 11:41:35 AM 41.7872 -92.2639 267° West 422 486 34,000  Level Minneapolis Center
Wed 11:42:05 AM 41.7811 -92.3542 265° West 419 482 34,000  Level Chicago Center
Wed 11:43:07 AM 41.7725 -92.5072 266° West 416 479 34,000  Level Chicago Center
Wed 11:44:08 AM 41.7650 -92.6628 266° West 419 482 34,000  Level Chicago Center
Wed 11:44:41 AM 41.7617 -92.7600 267° West 421 484 34,000  Level Minneapolis Center
Wed 11:45:43 AM 41.7525 -92.9256 266° West 423 487 34,000  Level Minneapolis Center
Wed 11:46:45 AM 41.7433 -93.0797 265° West 421 484 34,000  Level Minneapolis Center
Wed 11:47:47 AM 41.7336 -93.2369 265° West 426 490 34,000  Level Minneapolis Center
Wed 11:48:49 AM 41.7228 -93.4233 266° West 425 489 34,000  Level Minneapolis Center
Wed 11:49:51 AM 41.7147 -93.5778 266° West 421 484 34,000  Level Minneapolis Center
Wed 11:50:53 AM 41.7039 -93.7356 265° West 429 494 34,000  Level Minneapolis Center
Wed 11:51:55 AM 41.6942 -93.9042 266° West 427 491 34,000  Level Minneapolis Center
Wed 11:52:57 AM 41.6839 -94.0636 265° West 430 495 34,000  Level Minneapolis Center
Wed 11:53:59 AM 41.6719 -94.2389 265° West 429 494 34,000  Level Minneapolis Center
Wed 11:55:01 AM 41.6628 -94.3828 265° West 432 497 34,000  Level Minneapolis Center
Wed 11:56:03 AM 41.6494 -94.5744 265° West 431 496 34,000  Level Minneapolis Center
Wed 11:57:05 AM 41.6381 -94.7350 265° West 432 497 34,000  Level Minneapolis Center
Wed 11:58:07 AM 41.6264 -94.8956 265° West 433 498 34,000  Level Minneapolis Center
Wed 11:59:09 AM 41.6153 -95.0547 265° West 430 495 34,000  Level Minneapolis Center
Wed 12:00:11 PM 41.6028 -95.2156 264° West 436 502 34,000  Level Minneapolis Center
Wed 12:01:13 PM 41.5908 -95.3767 264° West 437 503 34,000  Level Minneapolis Center
Wed 12:02:15 PM 41.5758 -95.5689 264° West 436 502 34,000  Level Minneapolis Center
Wed 12:03:17 PM 41.5644 -95.7031 264° West 436 502 34,000  Level Minneapolis Center
Wed 12:04:19 PM 41.5500 -95.8944 264° West 436 502 34,000  Level Minneapolis Center
Wed 12:05:33 PM 41.5350 -96.0881 264° West 441 507 34,000  Level Minneapolis Center
Wed 12:06:35 PM 41.5211 -96.2497 264° West 441 507 34,000  Level Minneapolis Center
Wed 12:07:37 PM 41.5053 -96.4336 264° West 441 507 34,000  Level Minneapolis Center
Wed 12:09:41 PM 41.4747 -96.7553 263° West 440 506 34,000  Level Minneapolis Center
Wed 12:10:43 PM 41.4608 -96.9178 264° West 441 507 34,000  Level Minneapolis Center
Wed 12:11:45 PM 41.4458 -97.0803 263° West 442 509 34,000  Level Minneapolis Center
Wed 12:12:47 PM 41.4314 -97.2431 263° West 443 510 34,000  Level Minneapolis Center
Wed 12:14:01 PM 41.4133 -97.4364 263° West 440 506 34,000  Level Minneapolis Center
Wed 12:15:03 PM 41.3942 -97.6300 263° West 441 507 34,000  Level Minneapolis Center
Wed 12:16:05 PM 41.3789 -97.7925 263° West 441 507 34,000  Level Minneapolis Center
Wed 12:17:07 PM 41.3622 -97.9536 262° West 441 507 34,000  Level Minneapolis Center
Wed 12:18:09 PM 41.3464 -98.1142 263° West 439 505 34,000  Level Minneapolis Center
Wed 12:19:11 PM 41.3297 -98.2750 262° West 440 506 34,000  Level Minneapolis Center
Wed 12:20:13 PM 41.3092 -98.4689 262° West 441 507 34,000  Level Minneapolis Center
Wed 12:21:15 PM 41.2922 -98.6303 262° West 441 507 34,000  Level Minneapolis Center
Wed 12:22:17 PM 41.2753 -98.7906 262° West 441 507 34,000  Level Minneapolis Center
Wed 12:22:59 PM 41.2647 -98.9047 263° West 443 510 34,000  Level Denver Center
Wed 12:24:01 PM 41.2472 -99.0594 261° West 443 510 34,000  Level Denver Center
Wed 12:25:03 PM 41.2283 -99.2347 262° West 441 507 34,000  Level Denver Center
Wed 12:26:05 PM 41.2100 -99.3956 261° West 442 509 34,000  Level Denver Center
Wed 12:27:07 PM 41.1892 -99.5744 261° West 444 511 34,000  Level Denver Center
Wed 12:28:09 PM 41.1928 -99.7292 272° West 438 504 34,000  Level Denver Center
Wed 12:29:11 PM 41.2083 -99.9106 277° West 442 509 34,000  Level Denver Center
Wed 12:30:13 PM 41.2200 -100.0650 276° West 441 507 34,000  Level Denver Center
Wed 12:31:15 PM 41.2347 -100.2447 276° West 441 507 34,000  Level Denver Center
Wed 12:32:17 PM 41.2472 -100.3983 276° West 441 507 34,000  Level Denver Center
Wed 12:33:19 PM 41.2600 -100.5786 275° West 441 507 34,000  Level Denver Center
Wed 12:34:33 PM 41.2725 -100.7325 276° West 441 507 34,000  Level Denver Center
Wed 12:35:36 PM 41.2872 -100.9397 275° West 443 510 34,000  Level Denver Center
Wed 12:36:38 PM 41.2997 -101.1203 275° West 442 509 34,000  Level Denver Center
Wed 12:37:40 PM 41.3108 -101.2761 275° West 445 512 34,000  Level Denver Center
Wed 12:38:42 PM 41.3233 -101.4578 275° West 444 511 34,000  Level Denver Center
Wed 12:39:44 PM 41.3344 -101.6133 275° West 444 511 34,000  Level Denver Center
Wed 12:40:46 PM 41.3456 -101.7953 275° West 443 510 34,000  Level Denver Center
Wed 12:41:48 PM 41.3558 -101.9508 275° West 442 509 34,000  Level Denver Center
Wed 12:42:50 PM 41.3675 -102.1317 275° West 441 507 34,000  Level Denver Center
Wed 12:43:52 PM 41.3756 -102.2881 274° West 442 509 34,000  Level Denver Center
Wed 12:44:54 PM 41.3878 -102.4692 275° West 442 509 34,000  Level Denver Center
Wed 12:45:56 PM 41.3958 -102.6239 274° West 440 506 34,000  Level Denver Center
Wed 12:47:10 PM 41.4064 -102.7925 275° West 438 504 34,000  Level Denver Center
Wed 12:48:13 PM 41.4175 -103.0003 274° West 440 506 34,000  Level Denver Center
Wed 12:49:15 PM 41.4256 -103.1558 274° West 441 507 34,000  Level Denver Center
Wed 12:50:17 PM 41.4350 -103.3367 274° West 439 505 34,000  Level Denver Center
Wed 12:51:19 PM 41.4428 -103.4914 274° West 438 504 34,000  Level Denver Center
Wed 12:52:21 PM 41.4514 -103.6719 274° West 437 503 34,000  Level Denver Center
Wed 12:53:23 PM 41.4594 -103.8269 274° West 438 504 34,000  Level Denver Center
Wed 12:54:25 PM 41.4669 -103.9814 274° West 437 503 34,000  Level Denver Center
Wed 12:55:27 PM 41.4753 -104.1619 274° West 437 503 34,000  Level Denver Center
Wed 12:56:29 PM 41.4819 -104.3169 273° West 437 503 34,000  Level Denver Center
Wed 12:57:31 PM 41.4897 -104.4983 273° West 438 504 34,000  Level Denver Center
Wed 12:58:33 PM 41.4961 -104.6528 273° West 436 502 34,000  Level Denver Center
Wed 12:59:35 PM 41.5028 -104.8303 273° West 431 496 34,000  Level Denver Center
Wed 01:00:37 PM 41.5086 -104.9833 273° West 431 496 34,000  Level Denver Center
Wed 01:01:39 PM 41.5150 -105.1614 273° West 430 495 34,000  Level Denver Center
Wed 01:02:41 PM 41.5208 -105.3147 273° West 431 496 34,000  Level Denver Center
Wed 01:03:43 PM 41.5275 -105.4919 273° West 429 494 34,000  Level Denver Center
Wed 01:04:45 PM 41.5319 -105.6428 272° West 426 490 34,000  Level Denver Center
Wed 01:05:47 PM 41.5367 -105.7958 272° West 431 496 34,000  Level Denver Center
Wed 01:06:50 PM 41.5419 -105.9731 272° West 429 494 34,000  Level Denver Center
Wed 01:07:52 PM 41.5464 -106.1247 272° West 428 493 34,000  Level Denver Center
Wed 01:08:54 PM 41.5514 -106.3025 272° West 427 491 34,000  Level Denver Center
Wed 01:09:56 PM 41.5547 -106.4544 272° West 427 491 34,000  Level Denver Center
Wed 01:10:58 PM 41.5597 -106.6217 272° West 428 493 34,000  Level Denver Center
Wed 01:12:00 PM 41.5633 -106.7992 272° West 430 495 34,000  Level Denver Center
Wed 01:13:02 PM 41.5672 -106.9497 272° West 426 490 34,000  Level Denver Center
Wed 01:14:04 PM 41.5703 -107.1283 271° West 432 497 34,000  Level Denver Center
Wed 01:15:06 PM 41.5728 -107.2789 271° West 426 490 34,000  Level Denver Center
Wed 01:16:08 PM 41.5761 -107.4578 271° West 431 496 34,000  Level Denver Center
Wed 01:17:10 PM 41.5781 -107.5836 271° West 427 491 34,000  Level Denver Center
Wed 01:18:12 PM 41.5803 -107.7578 271° West 422 486 34,000  Level Denver Center
Wed 01:19:14 PM 41.5831 -107.9353 271° West 427 491 34,000  Level Denver Center
Wed 01:20:16 PM 41.5844 -108.0878 271° West 430 495 34,000  Level Denver Center
Wed 01:20:51 PM 41.5853 -108.1886 271° West 425 489 34,000  Level Salt Lake Center
Wed 01:21:52 PM 41.5878 -108.3661 271° West 428 493 34,000  Level Salt Lake Center
Wed 01:22:54 PM 41.5886 -108.5167 270° West 427 491 34,000  Level Salt Lake Center
Wed 01:23:55 PM 41.5903 -108.6694 271° West 429 494 34,000  Level Salt Lake Center
Wed 01:24:57 PM 41.5903 -108.8467 270° West 431 496 34,000  Level Salt Lake Center
Wed 01:25:59 PM 41.5964 -108.9961 273° West 428 493 34,000  Level Salt Lake Center
Wed 01:27:00 PM 41.6450 -109.1619 291° West 438 504 34,000  Level Salt Lake Center
Wed 01:28:02 PM 41.6969 -109.3014 297° West 441 507 34,000  Level Salt Lake Center
Wed 01:29:03 PM 41.7572 -109.4653 296° West 441 507 34,000  Level Salt Lake Center
Wed 01:30:05 PM 41.8092 -109.6058 296° West 442 509 34,000  Level Salt Lake Center
Wed 01:31:07 PM 41.8694 -109.7694 296° West 441 507 34,000  Level Salt Lake Center
Wed 01:32:08 PM 41.9206 -109.9122 296° West 443 510 34,000  Level Salt Lake Center
Wed 01:33:10 PM 41.9803 -110.0778 296° West 442 509 34,000  Level Salt Lake Center
Wed 01:34:12 PM 42.0317 -110.2197 296° West 443 510 34,000  Level Salt Lake Center
Wed 01:35:13 PM 42.0833 -110.3628 296° West 444 511 34,000  Level Salt Lake Center
Wed 01:36:15 PM 42.1431 -110.5294 296° West 443 510 34,000  Level Salt Lake Center
Wed 01:37:17 PM 42.1931 -110.6708 296° West 439 505 34,000  Level Salt Lake Center
Wed 01:38:19 PM 42.2519 -110.8383 295° West 441 507 34,000  Level Salt Lake Center
Wed 01:39:20 PM 42.3031 -110.9828 296° West 438 504 34,000  Level Salt Lake Center
Wed 01:40:22 PM 42.3542 -111.1314 295° West 438 504 34,000  Level Salt Lake Center
Wed 01:41:24 PM 42.4064 -111.2803 295° West 440 506 34,000  Level Salt Lake Center
Wed 01:42:26 PM 42.4572 -111.4286 295° West 437 503 34,000  Level Salt Lake Center
Wed 01:43:28 PM 42.5186 -111.6072 295° West 438 504 34,000  Level Salt Lake Center
Wed 01:44:29 PM 42.5697 -111.7564 295° West 439 505 34,000  Level Salt Lake Center
Wed 01:45:31 PM 42.6208 -111.9058 295° West 438 504 34,000  Level Salt Lake Center
Wed 01:46:33 PM 42.6717 -112.0575 295° West 441 507 34,000  Level Salt Lake Center
Wed 01:47:35 PM 42.7236 -112.2106 295° West 441 507 34,000  Level Salt Lake Center
Wed 01:48:37 PM 42.7808 -112.3806 295° West 441 507 34,000  Level Salt Lake Center
Wed 01:49:39 PM 42.8294 -112.5258 295° West 441 507 34,000  Level Salt Lake Center
Wed 01:50:41 PM 42.8803 -112.6992 292° West 441 507 34,000  Level Salt Lake Center
Wed 01:51:43 PM 42.9119 -112.8539 286° West 441 507 34,000  Level Salt Lake Center
Wed 01:52:45 PM 42.9503 -113.0331 286° West 441 507 34,000  Level Salt Lake Center
Wed 01:53:47 PM 42.9811 -113.1856 285° West 437 503 34,000  Level Salt Lake Center
Wed 01:54:49 PM 43.0178 -113.3653 286° West 438 504 34,000  Level Salt Lake Center
Wed 01:55:51 PM 43.0500 -113.5172 286° West 436 502 34,000  Level Salt Lake Center
Wed 01:56:53 PM 43.0797 -113.6692 285° West 435 501 34,000 -290 Level Salt Lake Center
Wed 01:57:55 PM 43.1144 -113.8464 285° West 432 497 33,400 -1,161 Descending Salt Lake Center
Wed 01:58:57 PM 43.1444 -114.0019 285° West 434 499 31,600 -1,824 Descending Salt Lake Center
Wed 02:00:00 PM 43.1736 -114.1533 285° West 413 475 29,600 -1,920 Descending Salt Lake Center
Wed 02:01:02 PM 43.2083 -114.3222 286° West 412 474 27,600 -1,984 Descending Salt Lake Center
Wed 02:02:04 PM 43.2419 -114.4928 285° West 414 476 25,500 -1,887 Descending Salt Lake Center
Wed 02:03:06 PM 43.2692 -114.6364 285° West 407 468 23,700 -1,694 Descending Salt Lake Center
Wed 02:04:08 PM 43.2950 -114.7731 285° West 388 447 22,000 -1,839 Descending Salt Lake Center
Wed 02:05:10 PM 43.3244 -114.9292 285° West 380 437 19,900 -1,935 Descending Salt Lake Center
Wed 02:06:12 PM 43.3517 -115.0750 284° West 377 434 18,000 -1,839 Descending Salt Lake Center
Wed 02:07:14 PM 43.3775 -115.2142 284° West 366 421 16,100 -1,790 Descending Salt Lake Center
Wed 02:08:16 PM 43.4022 -115.3508 284° West 357 411 14,300 -1,694 Descending Salt Lake Center
Wed 02:09:18 PM 43.4244 -115.4769 284° West 330 380 12,600 -1,548 Descending Salt Lake Center
Wed 02:10:20 PM 43.4433 -115.5808 284° West 296 341 11,100 -1,597 Descending Salt Lake Center
Wed 02:11:22 PM 43.4622 -115.6878 284° West 278 320 9,300 -1,512 Descending Salt Lake Center
Wed 02:12:23 PM 43.4808 -115.7908 284° West 267 307 8,000 -634 Descending Salt Lake Center
Wed 02:13:25 PM 43.4964 -115.8778 284° West 221 254 8,000 -484 Level Salt Lake Center
Wed 02:14:27 PM 43.4919 -115.9611 266° West 213 245 7,000 -1,065 Descending Salt Lake Center
Wed 02:15:29 PM 43.5039 -116.0422 282° West 206 237 5,800 -1,161 Descending Salt Lake Center

Login

Don't have an account? Register now (free) for customized features, flight alerts, and more!